sensor_id;sensor_type;location;lat;lon;timestamp;P1;durP1;ratioP1;P2;durP2;ratioP2
72645;SDS011;60687;53.876;10.674;2023-05-10T00:02:16;8.00;;;2.70;;
72645;SDS011;60687;53.876;10.674;2023-05-10T00:12:20;7.80;;;3.30;;
72645;SDS011;60687;53.876;10.674;2023-05-10T00:22:22;7.70;;;3.10;;
72645;SDS011;60687;53.876;10.674;2023-05-10T00:32:26;7.13;;;3.03;;
72645;SDS011;60687;53.876;10.674;2023-05-10T00:42:29;6.97;;;3.10;;
72645;SDS011;60687;53.876;10.674;2023-05-10T00:52:33;6.70;;;2.60;;
72645;SDS011;60687;53.876;10.674;2023-05-10T01:02:35;6.53;;;2.57;;
72645;SDS011;60687;53.876;10.674;2023-05-10T01:12:42;7.05;;;2.83;;
72645;SDS011;60687;53.876;10.674;2023-05-10T01:33:30;7.67;;;2.73;;
72645;SDS011;60687;53.876;10.674;2023-05-10T01:43:47;7.87;;;3.13;;
72645;SDS011;60687;53.876;10.674;2023-05-10T01:53:58;9.07;;;3.03;;
72645;SDS011;60687;53.876;10.674;2023-05-10T02:04:05;6.73;;;2.60;;
72645;SDS011;60687;53.876;10.674;2023-05-10T02:14:13;7.00;;;2.70;;
72645;SDS011;60687;53.876;10.674;2023-05-10T02:24:17;6.90;;;2.97;;
72645;SDS011;60687;53.876;10.674;2023-05-10T02:34:25;6.30;;;2.57;;
72645;SDS011;60687;53.876;10.674;2023-05-10T02:44:28;7.10;;;2.60;;
72645;SDS011;60687;53.876;10.674;2023-05-10T02:54:34;7.28;;;3.30;;
72645;SDS011;60687;53.876;10.674;2023-05-10T03:04:45;9.00;;;3.17;;
72645;SDS011;60687;53.876;10.674;2023-05-10T03:14:54;7.23;;;3.40;;
72645;SDS011;60687;53.876;10.674;2023-05-10T03:25:04;7.50;;;3.47;;
72645;SDS011;60687;53.876;10.674;2023-05-10T03:35:11;8.25;;;3.65;;
72645;SDS011;60687;53.876;10.674;2023-05-10T03:45:14;9.10;;;3.60;;
72645;SDS011;60687;53.876;10.674;2023-05-10T03:55:19;8.77;;;3.33;;
72645;SDS011;60687;53.876;10.674;2023-05-10T04:05:23;8.50;;;3.75;;
72645;SDS011;60687;53.876;10.674;2023-05-10T04:15:30;6.93;;;2.97;;
72645;SDS011;60687;53.876;10.674;2023-05-10T04:25:35;8.10;;;3.70;;
72645;SDS011;60687;53.876;10.674;2023-05-10T04:35:38;8.30;;;3.80;;
72645;SDS011;60687;53.876;10.674;2023-05-10T04:45:41;8.68;;;3.92;;
72645;SDS011;60687;53.876;10.674;2023-05-10T04:55:45;8.27;;;3.80;;
72645;SDS011;60687;53.876;10.674;2023-05-10T05:05:51;8.73;;;4.13;;
72645;SDS011;60687;53.876;10.674;2023-05-10T05:15:55;12.32;;;4.22;;
72645;SDS011;60687;53.876;10.674;2023-05-10T05:25:57;8.37;;;3.47;;
72645;SDS011;60687;53.876;10.674;2023-05-10T05:36:01;8.93;;;3.70;;
72645;SDS011;60687;53.876;10.674;2023-05-10T05:46:05;9.23;;;4.22;;
72645;SDS011;60687;53.876;10.674;2023-05-10T05:56:08;8.00;;;3.27;;
72645;SDS011;60687;53.876;10.674;2023-05-10T06:06:10;8.67;;;4.23;;
72645;SDS011;60687;53.876;10.674;2023-05-10T06:16:15;8.25;;;4.07;;
72645;SDS011;60687;53.876;10.674;2023-05-10T06:26:18;8.07;;;3.40;;
72645;SDS011;60687;53.876;10.674;2023-05-10T06:36:23;9.87;;;4.00;;
72645;SDS011;60687;53.876;10.674;2023-05-10T06:46:26;8.87;;;3.60;;
72645;SDS011;60687;53.876;10.674;2023-05-10T06:56:30;8.23;;;3.03;;
72645;SDS011;60687;53.876;10.674;2023-05-10T07:06:32;8.57;;;3.50;;
72645;SDS011;60687;53.876;10.674;2023-05-10T07:16:36;7.40;;;3.17;;
72645;SDS011;60687;53.876;10.674;2023-05-10T07:26:38;7.82;;;3.17;;
72645;SDS011;60687;53.876;10.674;2023-05-10T07:36:43;7.83;;;2.70;;
72645;SDS011;60687;53.876;10.674;2023-05-10T07:46:46;7.90;;;3.23;;
72645;SDS011;60687;53.876;10.674;2023-05-10T07:56:52;6.95;;;2.80;;
72645;SDS011;60687;53.876;10.674;2023-05-10T08:06:54;7.28;;;3.30;;
72645;SDS011;60687;53.876;10.674;2023-05-10T08:16:58;6.90;;;2.80;;
72645;SDS011;60687;53.876;10.674;2023-05-10T08:27:02;7.57;;;3.70;;
72645;SDS011;60687;53.876;10.674;2023-05-10T08:37:06;8.30;;;3.70;;
72645;SDS011;60687;53.876;10.674;2023-05-10T08:47:09;7.13;;;3.23;;
72645;SDS011;60687;53.876;10.674;2023-05-10T08:57:14;7.37;;;3.50;;
72645;SDS011;60687;53.876;10.674;2023-05-10T09:07:16;8.20;;;3.75;;
72645;SDS011;60687;53.876;10.674;2023-05-10T09:17:22;6.83;;;3.13;;
72645;SDS011;60687;53.876;10.674;2023-05-10T09:27:26;7.13;;;2.93;;
72645;SDS011;60687;53.876;10.674;2023-05-10T09:37:30;7.80;;;3.55;;
72645;SDS011;60687;53.876;10.674;2023-05-10T09:47:32;7.97;;;3.67;;
72645;SDS011;60687;53.876;10.674;2023-05-10T09:57:36;7.47;;;3.20;;
72645;SDS011;60687;53.876;10.674;2023-05-10T10:07:39;7.30;;;3.17;;
72645;SDS011;60687;53.876;10.674;2023-05-10T10:17:43;7.25;;;3.25;;
72645;SDS011;60687;53.876;10.674;2023-05-10T10:27:47;7.30;;;3.03;;
72645;SDS011;60687;53.876;10.674;2023-05-10T10:38:00;7.83;;;3.00;;
72645;SDS011;60687;53.876;10.674;2023-05-10T10:58:33;7.50;;;2.90;;
72645;SDS011;60687;53.876;10.674;2023-05-10T11:08:41;6.93;;;3.20;;
72645;SDS011;60687;53.876;10.674;2023-05-10T11:19:01;7.32;;;3.63;;
72645;SDS011;60687;53.876;10.674;2023-05-10T11:29:04;6.77;;;3.33;;
72645;SDS011;60687;53.876;10.674;2023-05-10T11:39:08;6.93;;;3.17;;
72645;SDS011;60687;53.876;10.674;2023-05-10T11:49:11;7.23;;;3.00;;
72645;SDS011;60687;53.876;10.674;2023-05-10T11:59:15;8.43;;;3.55;;
72645;SDS011;60687;53.876;10.674;2023-05-10T12:09:17;6.97;;;3.13;;
72645;SDS011;60687;53.876;10.674;2023-05-10T12:19:21;7.00;;;3.33;;
72645;SDS011;60687;53.876;10.674;2023-05-10T12:29:24;6.85;;;3.28;;
72645;SDS011;60687;53.876;10.674;2023-05-10T12:39:27;7.37;;;3.60;;
72645;SDS011;60687;53.876;10.674;2023-05-10T12:49:39;8.80;;;4.27;;
72645;SDS011;60687;53.876;10.674;2023-05-10T12:59:43;9.48;;;4.28;;
72645;SDS011;60687;53.876;10.674;2023-05-10T13:09:45;11.37;;;5.03;;
72645;SDS011;60687;53.876;10.674;2023-05-10T13:19:51;9.93;;;5.43;;
72645;SDS011;60687;53.876;10.674;2023-05-10T13:29:53;9.90;;;5.47;;
72645;SDS011;60687;53.876;10.674;2023-05-10T13:39:57;12.60;;;6.20;;
72645;SDS011;60687;53.876;10.674;2023-05-10T13:49:59;10.47;;;5.57;;
72645;SDS011;60687;53.876;10.674;2023-05-10T14:00:05;9.20;;;5.20;;
72645;SDS011;60687;53.876;10.674;2023-05-10T14:10:09;9.60;;;5.43;;
72645;SDS011;60687;53.876;10.674;2023-05-10T14:20:16;11.03;;;5.17;;
72645;SDS011;60687;53.876;10.674;2023-05-10T14:30:18;9.73;;;5.00;;
72645;SDS011;60687;53.876;10.674;2023-05-10T14:40:22;10.38;;;5.40;;
72645;SDS011;60687;53.876;10.674;2023-05-10T14:50:25;9.53;;;5.23;;
72645;SDS011;60687;53.876;10.674;2023-05-10T15:00:29;8.53;;;4.50;;
72645;SDS011;60687;53.876;10.674;2023-05-10T15:10:32;8.87;;;4.63;;
72645;SDS011;60687;53.876;10.674;2023-05-10T15:20:36;9.00;;;4.32;;
72645;SDS011;60687;53.876;10.674;2023-05-10T15:30:38;8.67;;;4.80;;
72645;SDS011;60687;53.876;10.674;2023-05-10T15:40:42;10.37;;;4.90;;
72645;SDS011;60687;53.876;10.674;2023-05-10T15:50:44;8.23;;;4.50;;
72645;SDS011;60687;53.876;10.674;2023-05-10T16:00:48;8.63;;;4.60;;
72645;SDS011;60687;53.876;10.674;2023-05-10T16:11:40;9.40;;;4.60;;
72645;SDS011;60687;53.876;10.674;2023-05-10T16:21:44;8.98;;;4.57;;
72645;SDS011;60687;53.876;10.674;2023-05-10T16:31:49;9.00;;;4.38;;
72645;SDS011;60687;53.876;10.674;2023-05-10T16:41:55;8.40;;;4.00;;
72645;SDS011;60687;53.876;10.674;2023-05-10T16:51:57;8.20;;;3.67;;
72645;SDS011;60687;53.876;10.674;2023-05-10T17:02:02;8.00;;;3.53;;
72645;SDS011;60687;53.876;10.674;2023-05-10T17:12:04;7.97;;;3.70;;
72645;SDS011;60687;53.876;10.674;2023-05-10T17:22:08;7.40;;;3.07;;
72645;SDS011;60687;53.876;10.674;2023-05-10T17:32:11;6.82;;;3.25;;
72645;SDS011;60687;53.876;10.674;2023-05-10T17:42:15;8.63;;;2.87;;
72645;SDS011;60687;53.876;10.674;2023-05-10T17:52:18;7.23;;;3.23;;
72645;SDS011;60687;53.876;10.674;2023-05-10T18:02:25;7.70;;;3.47;;
72645;SDS011;60687;53.876;10.674;2023-05-10T18:12:36;7.57;;;3.30;;
72645;SDS011;60687;53.876;10.674;2023-05-10T18:22:40;7.77;;;3.23;;
72645;SDS011;60687;53.876;10.674;2023-05-10T18:32:42;7.07;;;2.50;;
72645;SDS011;60687;53.876;10.674;2023-05-10T18:42:47;7.30;;;3.05;;
72645;SDS011;60687;53.876;10.674;2023-05-10T18:52:50;8.43;;;3.23;;
72645;SDS011;60687;53.876;10.674;2023-05-10T19:02:54;7.60;;;3.10;;
72645;SDS011;60687;53.876;10.674;2023-05-10T19:12:56;7.68;;;3.53;;
72645;SDS011;60687;53.876;10.674;2023-05-10T19:22:59;7.50;;;3.57;;
72645;SDS011;60687;53.876;10.674;2023-05-10T19:33:02;9.67;;;4.37;;
72645;SDS011;60687;53.876;10.674;2023-05-10T19:43:06;6.97;;;3.10;;
72645;SDS011;60687;53.876;10.674;2023-05-10T19:53:08;7.45;;;3.10;;
72645;SDS011;60687;53.876;10.674;2023-05-10T20:03:13;7.00;;;3.03;;
72645;SDS011;60687;53.876;10.674;2023-05-10T20:13:15;6.80;;;2.87;;
72645;SDS011;60687;53.876;10.674;2023-05-10T20:23:19;8.20;;;3.45;;
72645;SDS011;60687;53.876;10.674;2023-05-10T20:33:22;9.43;;;4.30;;
72645;SDS011;60687;53.876;10.674;2023-05-10T20:43:28;8.57;;;4.60;;
72645;SDS011;60687;53.876;10.674;2023-05-10T20:53:31;9.30;;;4.80;;
72645;SDS011;60687;53.876;10.674;2023-05-10T21:03:35;10.03;;;5.10;;
72645;SDS011;60687;53.876;10.674;2023-05-10T21:13:37;11.07;;;6.17;;
72645;SDS011;60687;53.876;10.674;2023-05-10T21:23:40;11.93;;;6.93;;
72645;SDS011;60687;53.876;10.674;2023-05-10T21:33:43;11.05;;;5.82;;
72645;SDS011;60687;53.876;10.674;2023-05-10T21:43:47;12.23;;;7.10;;
72645;SDS011;60687;53.876;10.674;2023-05-10T21:53:49;14.77;;;6.37;;
72645;SDS011;60687;53.876;10.674;2023-05-10T22:03:53;11.70;;;5.95;;
72645;SDS011;60687;53.876;10.674;2023-05-10T22:13:55;11.50;;;6.43;;
72645;SDS011;60687;53.876;10.674;2023-05-10T22:23:59;11.60;;;6.40;;
72645;SDS011;60687;53.876;10.674;2023-05-10T22:34:01;12.15;;;6.75;;
72645;SDS011;60687;53.876;10.674;2023-05-10T22:44:05;11.97;;;6.70;;
72645;SDS011;60687;53.876;10.674;2023-05-10T22:54:08;11.87;;;6.47;;
72645;SDS011;60687;53.876;10.674;2023-05-10T23:04:12;11.70;;;6.43;;
72645;SDS011;60687;53.876;10.674;2023-05-10T23:14:14;11.18;;;5.85;;
72645;SDS011;60687;53.876;10.674;2023-05-10T23:24:18;11.27;;;5.80;;
72645;SDS011;60687;53.876;10.674;2023-05-10T23:34:20;12.33;;;6.03;;
72645;SDS011;60687;53.876;10.674;2023-05-10T23:44:24;11.63;;;5.65;;
72645;SDS011;60687;53.876;10.674;2023-05-10T23:54:26;14.53;;;7.50;;
